sensor_id;sensor_type;location;lat;lon;timestamp;temperature;humidity
76789;DHT22;65740;52.464;13.446;2023-11-19T00:01:10;17.70;44.70
76789;DHT22;65740;52.464;13.446;2023-11-19T00:03:36;17.70;44.70
76789;DHT22;65740;52.464;13.446;2023-11-19T00:06:02;17.70;44.70
76789;DHT22;65740;52.464;13.446;2023-11-19T00:08:29;17.70;44.70
76789;DHT22;65740;52.464;13.446;2023-11-19T00:10:55;17.70;44.70
76789;DHT22;65740;52.464;13.446;2023-11-19T00:13:21;17.70;44.70
76789;DHT22;65740;52.464;13.446;2023-11-19T00:15:46;17.80;44.80
76789;DHT22;65740;52.464;13.446;2023-11-19T00:18:12;17.80;44.80
76789;DHT22;65740;52.464;13.446;2023-11-19T00:20:39;17.80;44.70
76789;DHT22;65740;52.464;13.446;2023-11-19T00:23:05;17.80;44.50
76789;DHT22;65740;52.464;13.446;2023-11-19T00:25:30;17.80;44.40
76789;DHT22;65740;52.464;13.446;2023-11-19T00:27:56;17.90;44.40
76789;DHT22;65740;52.464;13.446;2023-11-19T00:30:22;17.80;44.20
76789;DHT22;65740;52.464;13.446;2023-11-19T00:32:48;17.90;44.30
76789;DHT22;65740;52.464;13.446;2023-11-19T00:35:13;17.90;44.20
76789;DHT22;65740;52.464;13.446;2023-11-19T00:37:42;17.90;44.20
76789;DHT22;65740;52.464;13.446;2023-11-19T00:40:14;17.90;44.10
76789;DHT22;65740;52.464;13.446;2023-11-19T00:42:41;17.90;44.10
76789;DHT22;65740;52.464;13.446;2023-11-19T00:45:07;18.00;44.20
76789;DHT22;65740;52.464;13.446;2023-11-19T00:47:35;17.90;44.10
76789;DHT22;65740;52.464;13.446;2023-11-19T00:50:01;17.90;44.20
76789;DHT22;65740;52.464;13.446;2023-11-19T00:52:27;17.90;44.20
76789;DHT22;65740;52.464;13.446;2023-11-19T00:54:52;17.90;44.20
76789;DHT22;65740;52.464;13.446;2023-11-19T00:57:18;17.90;44.20
76789;DHT22;65740;52.464;13.446;2023-11-19T00:59:44;17.80;44.10
76789;DHT22;65740;52.464;13.446;2023-11-19T01:02:10;17.80;44.20
76789;DHT22;65740;52.464;13.446;2023-11-19T01:04:36;17.80;44.20
76789;DHT22;65740;52.464;13.446;2023-11-19T01:07:03;17.80;44.20
76789;DHT22;65740;52.464;13.446;2023-11-19T01:09:32;17.80;44.20
76789;DHT22;65740;52.464;13.446;2023-11-19T01:11:58;17.80;44.20
76789;DHT22;65740;52.464;13.446;2023-11-19T01:14:26;17.80;44.20
76789;DHT22;65740;52.464;13.446;2023-11-19T01:16:51;17.80;44.30
76789;DHT22;65740;52.464;13.446;2023-11-19T01:19:19;17.80;44.30
76789;DHT22;65740;52.464;13.446;2023-11-19T01:21:44;17.70;44.30
76789;DHT22;65740;52.464;13.446;2023-11-19T01:24:10;17.70;44.40
76789;DHT22;65740;52.464;13.446;2023-11-19T01:26:38;17.70;44.40
76789;DHT22;65740;52.464;13.446;2023-11-19T01:29:04;17.70;45.30
76789;DHT22;65740;52.464;13.446;2023-11-19T01:31:30;17.70;44.70
76789;DHT22;65740;52.464;13.446;2023-11-19T01:33:57;17.70;44.70
76789;DHT22;65740;52.464;13.446;2023-11-19T01:36:22;17.70;44.70
76789;DHT22;65740;52.464;13.446;2023-11-19T01:38:49;17.70;44.70
76789;DHT22;65740;52.464;13.446;2023-11-19T01:41:15;17.60;44.60
76789;DHT22;65740;52.464;13.446;2023-11-19T01:43:41;17.60;44.60
76789;DHT22;65740;52.464;13.446;2023-11-19T01:46:07;17.60;44.60
76789;DHT22;65740;52.464;13.446;2023-11-19T01:48:38;17.60;44.60
76789;DHT22;65740;52.464;13.446;2023-11-19T01:51:07;17.60;44.60
76789;DHT22;65740;52.464;13.446;2023-11-19T01:53:35;17.60;44.60
76789;DHT22;65740;52.464;13.446;2023-11-19T01:56:03;17.60;44.60
76789;DHT22;65740;52.464;13.446;2023-11-19T01:58:29;17.60;44.60
76789;DHT22;65740;52.464;13.446;2023-11-19T02:00:56;17.60;44.60
76789;DHT22;65740;52.464;13.446;2023-11-19T02:03:23;17.60;44.60
76789;DHT22;65740;52.464;13.446;2023-11-19T02:05:51;17.60;44.60
76789;DHT22;65740;52.464;13.446;2023-11-19T02:08:18;17.60;44.50
76789;DHT22;65740;52.464;13.446;2023-11-19T02:10:45;17.70;44.40
76789;DHT22;65740;52.464;13.446;2023-11-19T02:13:11;17.70;44.30
76789;DHT22;65740;52.464;13.446;2023-11-19T02:15:39;17.70;44.20
76789;DHT22;65740;52.464;13.446;2023-11-19T02:18:37;17.70;44.10
76789;DHT22;65740;52.464;13.446;2023-11-19T02:21:02;17.70;44.00
76789;DHT22;65740;52.464;13.446;2023-11-19T02:23:29;17.70;44.00
76789;DHT22;65740;52.464;13.446;2023-11-19T02:28:39;17.80;44.00
76789;DHT22;65740;52.464;13.446;2023-11-19T02:31:05;17.70;43.90
76789;DHT22;65740;52.464;13.446;2023-11-19T02:33:38;17.70;43.90
76789;DHT22;65740;52.464;13.446;2023-11-19T02:36:07;17.70;44.00
76789;DHT22;65740;52.464;13.446;2023-11-19T02:38:34;17.70;44.00
76789;DHT22;65740;52.464;13.446;2023-11-19T02:41:03;17.70;44.00
76789;DHT22;65740;52.464;13.446;2023-11-19T02:43:30;17.70;44.10
76789;DHT22;65740;52.464;13.446;2023-11-19T02:45:57;17.70;44.20
76789;DHT22;65740;52.464;13.446;2023-11-19T02:48:22;17.60;44.20
76789;DHT22;65740;52.464;13.446;2023-11-19T02:50:48;17.60;44.30
76789;DHT22;65740;52.464;13.446;2023-11-19T02:53:14;17.50;44.50
76789;DHT22;65740;52.464;13.446;2023-11-19T02:55:39;17.50;44.50
76789;DHT22;65740;52.464;13.446;2023-11-19T02:58:06;17.50;44.50
76789;DHT22;65740;52.464;13.446;2023-11-19T03:00:45;17.40;44.40
76789;DHT22;65740;52.464;13.446;2023-11-19T03:03:19;17.40;44.50
76789;DHT22;65740;52.464;13.446;2023-11-19T03:05:51;17.40;44.50
76789;DHT22;65740;52.464;13.446;2023-11-19T03:08:17;17.40;44.40
76789;DHT22;65740;52.464;13.446;2023-11-19T03:10:43;17.40;44.40
76789;DHT22;65740;52.464;13.446;2023-11-19T03:13:12;17.30;44.30
76789;DHT22;65740;52.464;13.446;2023-11-19T03:15:39;17.40;44.40
76789;DHT22;65740;52.464;13.446;2023-11-19T03:18:05;17.40;44.40
76789;DHT22;65740;52.464;13.446;2023-11-19T03:20:30;17.40;44.40
76789;DHT22;65740;52.464;13.446;2023-11-19T03:22:56;17.40;44.40
76789;DHT22;65740;52.464;13.446;2023-11-19T03:25:25;17.40;44.40
76789;DHT22;65740;52.464;13.446;2023-11-19T03:27:52;17.50;44.50
76789;DHT22;65740;52.464;13.446;2023-11-19T03:30:18;17.50;44.50
76789;DHT22;65740;52.464;13.446;2023-11-19T03:32:46;17.50;44.40
76789;DHT22;65740;52.464;13.446;2023-11-19T03:35:11;17.60;44.90
76789;DHT22;65740;52.464;13.446;2023-11-19T03:37:37;17.60;44.10
76789;DHT22;65740;52.464;13.446;2023-11-19T03:40:05;17.70;44.10
76789;DHT22;65740;52.464;13.446;2023-11-19T03:42:31;17.70;43.90
76789;DHT22;65740;52.464;13.446;2023-11-19T03:44:57;17.70;43.80
76789;DHT22;65740;52.464;13.446;2023-11-19T03:47:22;17.80;43.90
76789;DHT22;65740;52.464;13.446;2023-11-19T03:49:49;17.80;43.80
76789;DHT22;65740;52.464;13.446;2023-11-19T03:52:15;17.80;43.70
76789;DHT22;65740;52.464;13.446;2023-11-19T03:54:41;17.80;43.70
76789;DHT22;65740;52.464;13.446;2023-11-19T03:57:07;17.80;43.60
76789;DHT22;65740;52.464;13.446;2023-11-19T03:59:32;17.80;43.70
76789;DHT22;65740;52.464;13.446;2023-11-19T04:01:59;17.80;43.70
76789;DHT22;65740;52.464;13.446;2023-11-19T04:04:26;17.80;43.70
76789;DHT22;65740;52.464;13.446;2023-11-19T04:06:53;17.80;43.70
76789;DHT22;65740;52.464;13.446;2023-11-19T04:09:19;17.80;43.70
76789;DHT22;65740;52.464;13.446;2023-11-19T04:11:45;17.80;43.70
76789;DHT22;65740;52.464;13.446;2023-11-19T04:14:13;17.80;43.70
76789;DHT22;65740;52.464;13.446;2023-11-19T04:16:39;17.70;43.70
76789;DHT22;65740;52.464;13.446;2023-11-19T04:19:05;17.70;43.80
76789;DHT22;65740;52.464;13.446;2023-11-19T04:21:32;17.70;43.80
76789;DHT22;65740;52.464;13.446;2023-11-19T04:23:58;17.70;43.90
76789;DHT22;65740;52.464;13.446;2023-11-19T04:26:23;17.60;43.90
76789;DHT22;65740;52.464;13.446;2023-11-19T04:28:49;17.60;44.00
76789;DHT22;65740;52.464;13.446;2023-11-19T04:31:15;17.60;44.10
76789;DHT22;65740;52.464;13.446;2023-11-19T04:33:42;17.50;44.10
76789;DHT22;65740;52.464;13.446;2023-11-19T04:36:08;17.50;44.30
76789;DHT22;65740;52.464;13.446;2023-11-19T04:38:34;17.50;44.40
76789;DHT22;65740;52.464;13.446;2023-11-19T04:41:00;17.50;44.50
76789;DHT22;65740;52.464;13.446;2023-11-19T04:43:25;17.40;44.40
76789;DHT22;65740;52.464;13.446;2023-11-19T04:45:51;17.40;45.10
76789;DHT22;65740;52.464;13.446;2023-11-19T04:48:17;17.40;44.40
76789;DHT22;65740;52.464;13.446;2023-11-19T04:50:42;17.40;44.50
76789;DHT22;65740;52.464;13.446;2023-11-19T04:53:08;17.40;44.50
76789;DHT22;65740;52.464;13.446;2023-11-19T04:55:34;17.50;44.50
76789;DHT22;65740;52.464;13.446;2023-11-19T04:57:59;17.40;44.40
76789;DHT22;65740;52.464;13.446;2023-11-19T05:00:25;17.40;44.40
76789;DHT22;65740;52.464;13.446;2023-11-19T05:02:51;17.40;44.40
76789;DHT22;65740;52.464;13.446;2023-11-19T05:05:17;17.50;44.50
76789;DHT22;65740;52.464;13.446;2023-11-19T05:07:43;17.50;44.40
76789;DHT22;65740;52.464;13.446;2023-11-19T05:10:09;17.50;44.20
76789;DHT22;65740;52.464;13.446;2023-11-19T05:12:34;17.70;44.30
76789;DHT22;65740;52.464;13.446;2023-11-19T05:15:00;17.60;44.00
76789;DHT22;65740;52.464;13.446;2023-11-19T05:17:26;17.60;43.90
76789;DHT22;65740;52.464;13.446;2023-11-19T05:19:51;17.70;43.90
76789;DHT22;65740;52.464;13.446;2023-11-19T05:22:17;17.70;43.80
76789;DHT22;65740;52.464;13.446;2023-11-19T05:24:43;17.70;43.70
76789;DHT22;65740;52.464;13.446;2023-11-19T05:27:09;17.70;43.70
76789;DHT22;65740;52.464;13.446;2023-11-19T05:29:37;17.80;43.70
76789;DHT22;65740;52.464;13.446;2023-11-19T05:32:05;17.80;43.70
76789;DHT22;65740;52.464;13.446;2023-11-19T05:34:30;17.80;43.70
76789;DHT22;65740;52.464;13.446;2023-11-19T05:36:56;17.80;43.70
76789;DHT22;65740;52.464;13.446;2023-11-19T05:39:23;17.80;43.60
76789;DHT22;65740;52.464;13.446;2023-11-19T05:41:49;17.80;43.60
76789;DHT22;65740;52.464;13.446;2023-11-19T05:44:15;17.80;43.70
76789;DHT22;65740;52.464;13.446;2023-11-19T05:46:40;17.80;43.70
76789;DHT22;65740;52.464;13.446;2023-11-19T05:49:08;17.80;43.70
76789;DHT22;65740;52.464;13.446;2023-11-19T05:51:38;17.70;43.70
76789;DHT22;65740;52.464;13.446;2023-11-19T05:54:05;17.70;44.30
76789;DHT22;65740;52.464;13.446;2023-11-19T05:56:32;17.70;43.70
76789;DHT22;65740;52.464;13.446;2023-11-19T05:58:58;17.70;43.70
76789;DHT22;65740;52.464;13.446;2023-11-19T06:01:26;17.70;43.80
76789;DHT22;65740;52.464;13.446;2023-11-19T06:03:52;17.70;43.80
76789;DHT22;65740;52.464;13.446;2023-11-19T06:06:18;17.60;43.80
76789;DHT22;65740;52.464;13.446;2023-11-19T06:08:44;17.60;43.80
76789;DHT22;65740;52.464;13.446;2023-11-19T06:11:10;17.60;43.90
76789;DHT22;65740;52.464;13.446;2023-11-19T06:13:44;17.60;44.00
76789;DHT22;65740;52.464;13.446;2023-11-19T06:16:09;17.60;44.00
76789;DHT22;65740;52.464;13.446;2023-11-19T06:18:36;17.50;44.00
76789;DHT22;65740;52.464;13.446;2023-11-19T06:21:02;17.50;44.10
76789;DHT22;65740;52.464;13.446;2023-11-19T06:23:28;17.50;44.20
76789;DHT22;65740;52.464;13.446;2023-11-19T06:25:53;17.50;44.50
76789;DHT22;65740;52.464;13.446;2023-11-19T06:28:19;17.40;45.10
76789;DHT22;65740;52.464;13.446;2023-11-19T06:30:45;17.40;44.40
76789;DHT22;65740;52.464;13.446;2023-11-19T06:33:14;17.40;44.40
76789;DHT22;65740;52.464;13.446;2023-11-19T06:35:40;17.40;44.40
76789;DHT22;65740;52.464;13.446;2023-11-19T06:38:05;17.40;44.40
76789;DHT22;65740;52.464;13.446;2023-11-19T06:40:34;17.40;44.40
76789;DHT22;65740;52.464;13.446;2023-11-19T06:43:03;17.40;44.40
76789;DHT22;65740;52.464;13.446;2023-11-19T06:45:29;17.40;44.40
76789;DHT22;65740;52.464;13.446;2023-11-19T06:47:55;17.40;44.40
76789;DHT22;65740;52.464;13.446;2023-11-19T06:50:21;17.40;44.50
76789;DHT22;65740;52.464;13.446;2023-11-19T06:52:46;17.50;44.40
76789;DHT22;65740;52.464;13.446;2023-11-19T06:55:12;17.50;44.20
76789;DHT22;65740;52.464;13.446;2023-11-19T06:57:38;17.50;44.10
76789;DHT22;65740;52.464;13.446;2023-11-19T07:00:05;17.50;44.00
76789;DHT22;65740;52.464;13.446;2023-11-19T07:02:31;17.60;43.90
76789;DHT22;65740;52.464;13.446;2023-11-19T07:04:57;17.60;43.90
76789;DHT22;65740;52.464;13.446;2023-11-19T07:07:22;17.60;43.80
76789;DHT22;65740;52.464;13.446;2023-11-19T07:09:48;17.70;43.90
76789;DHT22;65740;52.464;13.446;2023-11-19T07:12:14;17.70;43.80
76789;DHT22;65740;52.464;13.446;2023-11-19T07:14:40;17.70;43.80
76789;DHT22;65740;52.464;13.446;2023-11-19T07:17:07;17.70;43.80
76789;DHT22;65740;52.464;13.446;2023-11-19T07:19:34;17.70;43.80
76789;DHT22;65740;52.464;13.446;2023-11-19T07:22:01;17.70;43.80
76789;DHT22;65740;52.464;13.446;2023-11-19T07:24:27;17.70;43.80
76789;DHT22;65740;52.464;13.446;2023-11-19T07:26:54;17.70;43.90
76789;DHT22;65740;52.464;13.446;2023-11-19T07:29:20;17.70;43.90
76789;DHT22;65740;52.464;13.446;2023-11-19T07:31:48;17.60;43.70
76789;DHT22;65740;52.464;13.446;2023-11-19T07:34:14;17.70;43.80
76789;DHT22;65740;52.464;13.446;2023-11-19T07:36:40;17.70;43.90
76789;DHT22;65740;52.464;13.446;2023-11-19T07:39:06;17.70;43.90
76789;DHT22;65740;52.464;13.446;2023-11-19T07:41:32;17.70;43.90
76789;DHT22;65740;52.464;13.446;2023-11-19T07:43:58;17.60;43.80
76789;DHT22;65740;52.464;13.446;2023-11-19T07:46:23;17.60;43.80
76789;DHT22;65740;52.464;13.446;2023-11-19T07:48:50;17.60;44.60
76789;DHT22;65740;52.464;13.446;2023-11-19T07:51:16;17.60;44.00
76789;DHT22;65740;52.464;13.446;2023-11-19T07:53:42;17.60;44.00
76789;DHT22;65740;52.464;13.446;2023-11-19T07:56:08;17.60;44.10
76789;DHT22;65740;52.464;13.446;2023-11-19T07:58:33;17.50;44.10
76789;DHT22;65740;52.464;13.446;2023-11-19T08:00:59;17.50;44.20
76789;DHT22;65740;52.464;13.446;2023-11-19T08:03:25;17.50;44.30
76789;DHT22;65740;52.464;13.446;2023-11-19T08:05:50;17.50;44.40
76789;DHT22;65740;52.464;13.446;2023-11-19T08:08:16;17.50;44.50
76789;DHT22;65740;52.464;13.446;2023-11-19T08:10:42;17.50;44.50
76789;DHT22;65740;52.464;13.446;2023-11-19T08:13:10;17.50;44.50
76789;DHT22;65740;52.464;13.446;2023-11-19T08:15:35;17.40;44.40
76789;DHT22;65740;52.464;13.446;2023-11-19T08:18:01;17.40;44.40
76789;DHT22;65740;52.464;13.446;2023-11-19T08:20:27;17.40;44.50
76789;DHT22;65740;52.464;13.446;2023-11-19T08:22:53;17.40;44.40
76789;DHT22;65740;52.464;13.446;2023-11-19T08:25:18;17.40;44.40
76789;DHT22;65740;52.464;13.446;2023-11-19T08:27:44;17.40;44.40
76789;DHT22;65740;52.464;13.446;2023-11-19T08:30:10;17.40;44.40
76789;DHT22;65740;52.464;13.446;2023-11-19T08:32:36;17.40;44.40
76789;DHT22;65740;52.464;13.446;2023-11-19T08:35:01;17.40;44.40
76789;DHT22;65740;52.464;13.446;2023-11-19T08:37:27;17.50;44.50
76789;DHT22;65740;52.464;13.446;2023-11-19T08:39:53;17.50;44.50
76789;DHT22;65740;52.464;13.446;2023-11-19T08:42:19;17.50;44.40
76789;DHT22;65740;52.464;13.446;2023-11-19T08:44:49;17.50;44.20
76789;DHT22;65740;52.464;13.446;2023-11-19T08:47:16;17.60;44.10
76789;DHT22;65740;52.464;13.446;2023-11-19T08:49:43;17.60;44.10
76789;DHT22;65740;52.464;13.446;2023-11-19T08:52:09;17.70;44.10
76789;DHT22;65740;52.464;13.446;2023-11-19T08:54:36;17.70;44.00
76789;DHT22;65740;52.464;13.446;2023-11-19T08:57:02;17.70;44.70
76789;DHT22;65740;52.464;13.446;2023-11-19T08:59:28;17.70;44.00
76789;DHT22;65740;52.464;13.446;2023-11-19T09:01:54;17.70;43.90
76789;DHT22;65740;52.464;13.446;2023-11-19T09:04:20;17.70;43.80
76789;DHT22;65740;52.464;13.446;2023-11-19T09:06:48;17.70;43.90
76789;DHT22;65740;52.464;13.446;2023-11-19T09:09:13;17.70;43.80
76789;DHT22;65740;52.464;13.446;2023-11-19T09:11:39;17.70;43.90
76789;DHT22;65740;52.464;13.446;2023-11-19T09:14:05;17.80;43.90
76789;DHT22;65740;52.464;13.446;2023-11-19T09:16:30;17.70;43.90
76789;DHT22;65740;52.464;13.446;2023-11-19T09:18:56;17.70;43.90
76789;DHT22;65740;52.464;13.446;2023-11-19T09:21:23;17.70;44.00
76789;DHT22;65740;52.464;13.446;2023-11-19T09:23:49;17.70;44.00
76789;DHT22;65740;52.464;13.446;2023-11-19T09:26:15;17.70;44.20
76789;DHT22;65740;52.464;13.446;2023-11-19T09:28:41;17.60;44.20
76789;DHT22;65740;52.464;13.446;2023-11-19T09:31:16;17.60;44.40
76789;DHT22;65740;52.464;13.446;2023-11-19T09:33:42;17.60;44.60
76789;DHT22;65740;52.464;13.446;2023-11-19T09:36:08;17.50;44.50
76789;DHT22;65740;52.464;13.446;2023-11-19T09:38:35;17.50;44.50
76789;DHT22;65740;52.464;13.446;2023-11-19T09:41:06;17.40;44.40
76789;DHT22;65740;52.464;13.446;2023-11-19T09:43:38;17.40;45.00
76789;DHT22;65740;52.464;13.446;2023-11-19T09:46:05;17.40;44.40
76789;DHT22;65740;52.464;13.446;2023-11-19T09:48:35;17.40;44.40
76789;DHT22;65740;52.464;13.446;2023-11-19T09:51:02;17.30;44.30
76789;DHT22;65740;52.464;13.446;2023-11-19T09:53:29;17.30;44.30
76789;DHT22;65740;52.464;13.446;2023-11-19T09:55:56;17.30;44.30
76789;DHT22;65740;52.464;13.446;2023-11-19T09:58:22;17.30;44.30
76789;DHT22;65740;52.464;13.446;2023-11-19T10:00:49;17.30;44.30
76789;DHT22;65740;52.464;13.446;2023-11-19T10:03:15;17.30;44.30
76789;DHT22;65740;52.464;13.446;2023-11-19T10:05:41;17.40;44.40
76789;DHT22;65740;52.464;13.446;2023-11-19T10:08:07;17.40;44.40
76789;DHT22;65740;52.464;13.446;2023-11-19T10:10:37;17.50;44.50
76789;DHT22;65740;52.464;13.446;2023-11-19T10:13:03;17.50;44.50
76789;DHT22;65740;52.464;13.446;2023-11-19T10:15:36;17.60;44.60
76789;DHT22;65740;52.464;13.446;2023-11-19T10:18:02;17.60;44.60
76789;DHT22;65740;52.464;13.446;2023-11-19T10:20:38;17.60;44.60
76789;DHT22;65740;52.464;13.446;2023-11-19T10:23:06;17.70;44.70
76789;DHT22;65740;52.464;13.446;2023-11-19T10:25:33;17.80;44.70
76789;DHT22;65740;52.464;13.446;2023-11-19T10:27:59;17.80;44.50
76789;DHT22;65740;52.464;13.446;2023-11-19T10:30:27;17.90;44.40
76789;DHT22;65740;52.464;13.446;2023-11-19T10:33:11;17.90;44.30
76789;DHT22;65740;52.464;13.446;2023-11-19T10:35:54;17.90;44.30
76789;DHT22;65740;52.464;13.446;2023-11-19T10:38:20;17.90;44.30
76789;DHT22;65740;52.464;13.446;2023-11-19T10:40:47;17.90;44.30
76789;DHT22;65740;52.464;13.446;2023-11-19T10:43:13;17.90;44.30
76789;DHT22;65740;52.464;13.446;2023-11-19T10:45:39;17.90;44.30
76789;DHT22;65740;52.464;13.446;2023-11-19T10:48:06;17.90;44.30
76789;DHT22;65740;52.464;13.446;2023-11-19T10:50:35;17.90;44.30
76789;DHT22;65740;52.464;13.446;2023-11-19T10:53:02;17.90;45.10
76789;DHT22;65740;52.464;13.446;2023-11-19T10:55:30;18.00;44.60
76789;DHT22;65740;52.464;13.446;2023-11-19T10:58:00;18.00;44.60
76789;DHT22;65740;52.464;13.446;2023-11-19T11:00:47;17.90;44.50
76789;DHT22;65740;52.464;13.446;2023-11-19T11:03:18;18.00;44.70
76789;DHT22;65740;52.464;13.446;2023-11-19T11:05:46;18.00;44.80
76789;DHT22;65740;52.464;13.446;2023-11-19T11:08:12;17.90;44.80
76789;DHT22;65740;52.464;13.446;2023-11-19T11:10:43;18.00;44.90
76789;DHT22;65740;52.464;13.446;2023-11-19T11:13:09;18.00;44.90
76789;DHT22;65740;52.464;13.446;2023-11-19T11:15:36;18.00;44.90
76789;DHT22;65740;52.464;13.446;2023-11-19T11:18:03;17.90;44.80
76789;DHT22;65740;52.464;13.446;2023-11-19T11:20:32;17.90;44.90
76789;DHT22;65740;52.464;13.446;2023-11-19T11:39:34;17.80;44.80
76789;DHT22;65740;52.464;13.446;2023-11-19T11:50:19;17.90;44.80
76789;DHT22;65740;52.464;13.446;2023-11-19T11:55:26;18.30;45.20
76789;DHT22;65740;52.464;13.446;2023-11-19T11:57:53;18.50;44.90
76789;DHT22;65740;52.464;13.446;2023-11-19T12:02:59;18.70;44.40
76789;DHT22;65740;52.464;13.446;2023-11-19T12:05:25;18.80;44.20
76789;DHT22;65740;52.464;13.446;2023-11-19T12:07:57;18.90;44.10
76789;DHT22;65740;52.464;13.446;2023-11-19T12:10:25;19.00;44.00
76789;DHT22;65740;52.464;13.446;2023-11-19T12:12:58;19.10;43.90
76789;DHT22;65740;52.464;13.446;2023-11-19T12:15:24;19.20;43.80
76789;DHT22;65740;52.464;13.446;2023-11-19T12:17:52;19.20;43.90
76789;DHT22;65740;52.464;13.446;2023-11-19T12:20:19;19.20;43.90
76789;DHT22;65740;52.464;13.446;2023-11-19T12:22:46;19.10;43.90
76789;DHT22;65740;52.464;13.446;2023-11-19T12:25:13;19.10;44.10
76789;DHT22;65740;52.464;13.446;2023-11-19T12:27:44;19.10;44.20
76789;DHT22;65740;52.464;13.446;2023-11-19T12:30:10;19.10;44.30
76789;DHT22;65740;52.464;13.446;2023-11-19T12:32:43;19.10;44.40
76789;DHT22;65740;52.464;13.446;2023-11-19T12:35:10;19.10;44.30
76789;DHT22;65740;52.464;13.446;2023-11-19T12:37:48;19.20;44.80
76789;DHT22;65740;52.464;13.446;2023-11-19T12:40:19;19.30;44.00
76789;DHT22;65740;52.464;13.446;2023-11-19T12:42:46;19.40;43.80
76789;DHT22;65740;52.464;13.446;2023-11-19T12:45:12;19.60;43.70
76789;DHT22;65740;52.464;13.446;2023-11-19T12:47:39;19.70;43.50
76789;DHT22;65740;52.464;13.446;2023-11-19T12:50:09;19.80;43.40
76789;DHT22;65740;52.464;13.446;2023-11-19T12:52:38;19.80;43.40
76789;DHT22;65740;52.464;13.446;2023-11-19T12:55:25;19.90;43.50
76789;DHT22;65740;52.464;13.446;2023-11-19T12:57:51;19.90;43.40
76789;DHT22;65740;52.464;13.446;2023-11-19T13:00:21;20.00;43.50
76789;DHT22;65740;52.464;13.446;2023-11-19T13:02:49;20.10;43.70
76789;DHT22;65740;52.464;13.446;2023-11-19T13:05:25;20.10;43.70
76789;DHT22;65740;52.464;13.446;2023-11-19T13:10:26;20.30;44.00
76789;DHT22;65740;52.464;13.446;2023-11-19T13:13:02;20.50;43.80
76789;DHT22;65740;52.464;13.446;2023-11-19T13:15:28;20.30;43.60
76789;DHT22;65740;52.464;13.446;2023-11-19T13:17:54;20.40;43.60
76789;DHT22;65740;52.464;13.446;2023-11-19T13:20:19;20.50;43.70
76789;DHT22;65740;52.464;13.446;2023-11-19T13:23:00;20.50;43.70
76789;DHT22;65740;52.464;13.446;2023-11-19T13:25:27;20.50;43.60
76789;DHT22;65740;52.464;13.446;2023-11-19T13:27:53;20.60;43.70
76789;DHT22;65740;52.464;13.446;2023-11-19T13:30:19;20.60;43.80
76789;DHT22;65740;52.464;13.446;2023-11-19T13:32:45;20.60;43.70
76789;DHT22;65740;52.464;13.446;2023-11-19T13:35:12;20.50;43.80
76789;DHT22;65740;52.464;13.446;2023-11-19T13:37:38;20.50;43.80
76789;DHT22;65740;52.464;13.446;2023-11-19T13:40:04;20.50;44.10
76789;DHT22;65740;52.464;13.446;2023-11-19T13:42:30;20.50;44.20
76789;DHT22;65740;52.464;13.446;2023-11-19T13:44:56;20.40;44.30
76789;DHT22;65740;52.464;13.446;2023-11-19T13:47:22;20.40;44.40
76789;DHT22;65740;52.464;13.446;2023-11-19T13:49:49;20.30;45.20
76789;DHT22;65740;52.464;13.446;2023-11-19T13:52:14;20.30;44.70
76789;DHT22;65740;52.464;13.446;2023-11-19T13:54:40;20.20;44.80
76789;DHT22;65740;52.464;13.446;2023-11-19T13:57:06;20.20;44.90
76789;DHT22;65740;52.464;13.446;2023-11-19T13:59:32;20.20;45.00
76789;DHT22;65740;52.464;13.446;2023-11-19T14:02:00;20.10;45.00
76789;DHT22;65740;52.464;13.446;2023-11-19T14:04:26;20.20;45.20
76789;DHT22;65740;52.464;13.446;2023-11-19T14:06:51;20.10;45.10
76789;DHT22;65740;52.464;13.446;2023-11-19T14:09:17;20.10;45.20
76789;DHT22;65740;52.464;13.446;2023-11-19T14:11:43;20.10;45.40
76789;DHT22;65740;52.464;13.446;2023-11-19T14:14:09;20.10;45.40
76789;DHT22;65740;52.464;13.446;2023-11-19T14:16:35;20.20;45.40
76789;DHT22;65740;52.464;13.446;2023-11-19T14:19:00;20.30;45.20
76789;DHT22;65740;52.464;13.446;2023-11-19T14:21:26;20.40;45.10
76789;DHT22;65740;52.464;13.446;2023-11-19T14:23:54;20.50;44.90
76789;DHT22;65740;52.464;13.446;2023-11-19T14:26:21;20.60;44.80
76789;DHT22;65740;52.464;13.446;2023-11-19T14:28:46;20.70;44.70
76789;DHT22;65740;52.464;13.446;2023-11-19T14:31:12;20.80;44.60
76789;DHT22;65740;52.464;13.446;2023-11-19T14:33:38;20.90;44.50
76789;DHT22;65740;52.464;13.446;2023-11-19T14:36:04;21.10;44.60
76789;DHT22;65740;52.464;13.446;2023-11-19T14:38:31;21.00;44.30
76789;DHT22;65740;52.464;13.446;2023-11-19T14:40:58;21.10;44.40
76789;DHT22;65740;52.464;13.446;2023-11-19T14:43:25;21.10;44.30
76789;DHT22;65740;52.464;13.446;2023-11-19T14:45:50;21.20;44.30
76789;DHT22;65740;52.464;13.446;2023-11-19T14:48:19;21.20;44.30
76789;DHT22;65740;52.464;13.446;2023-11-19T14:50:45;21.20;44.20
76789;DHT22;65740;52.464;13.446;2023-11-19T14:53:10;21.30;44.20
76789;DHT22;65740;52.464;13.446;2023-11-19T14:55:36;21.30;44.10
76789;DHT22;65740;52.464;13.446;2023-11-19T14:58:02;21.30;44.10
76789;DHT22;65740;52.464;13.446;2023-11-19T15:00:27;21.40;44.10
76789;DHT22;65740;52.464;13.446;2023-11-19T15:02:54;21.40;44.10
76789;DHT22;65740;52.464;13.446;2023-11-19T15:05:20;21.40;44.10
76789;DHT22;65740;52.464;13.446;2023-11-19T15:07:45;21.50;44.20
76789;DHT22;65740;52.464;13.446;2023-11-19T15:10:11;21.50;44.10
76789;DHT22;65740;52.464;13.446;2023-11-19T15:12:38;21.50;44.10
76789;DHT22;65740;52.464;13.446;2023-11-19T15:15:07;21.50;44.10
76789;DHT22;65740;52.464;13.446;2023-11-19T15:17:34;21.50;44.40
76789;DHT22;65740;52.464;13.446;2023-11-19T15:19:59;21.50;44.20
76789;DHT22;65740;52.464;13.446;2023-11-19T15:22:25;21.50;44.20
76789;DHT22;65740;52.464;13.446;2023-11-19T15:24:50;21.50;44.30
76789;DHT22;65740;52.464;13.446;2023-11-19T15:27:16;21.50;44.40
76789;DHT22;65740;52.464;13.446;2023-11-19T15:29:43;21.50;44.40
76789;DHT22;65740;52.464;13.446;2023-11-19T15:32:08;21.50;44.40
76789;DHT22;65740;52.464;13.446;2023-11-19T15:34:34;21.50;44.50
76789;DHT22;65740;52.464;13.446;2023-11-19T15:37:02;21.40;44.50
76789;DHT22;65740;52.464;13.446;2023-11-19T15:39:28;21.40;44.50
76789;DHT22;65740;52.464;13.446;2023-11-19T15:41:54;21.50;44.50
76789;DHT22;65740;52.464;13.446;2023-11-19T15:44:21;21.50;44.70
76789;DHT22;65740;52.464;13.446;2023-11-19T15:46:46;21.40;44.70
76789;DHT22;65740;52.464;13.446;2023-11-19T15:49:12;21.50;44.80